Antonios — SY8410 — position and weather

sailwx.info

Track history (hours):
 
Tides and Currents Weather Stations Pressure Air Temp Water Temp Dewpoint Dewpoint Depression Visibility Wind Speed Wind Dir Waves Ship Positions

Antonios

Last reported at 2016-Jun-14 04:33 UTC. Time now 2016-Jun-29 03:58 UTC.
Position N 37°01' E 025°18'.
Warning: this ship's position is 14 days out of date.

Length 57 m; draft 4 m.

Type: Tanker. MMSI: 239191300.

Date/timePositionNaut miles runAvg speedWind from/ knotsBaromVisibWave heightAir tempDewpointWater temp
2016-Jun-14 04:33N 37°01' E 025°18'6 6.3
2016-Jun-14 03:33N 37°06' E 025°22'0 0.0
2016-Jun-14 02:33N 37°06' E 025°22'0 0.0
2016-Jun-14 01:33N 37°06' E 025°22'7 7.0
2016-Jun-14 00:33N 37°12' E 025°28'9 9.5
2016-Jun-13 23:33N 37°11' E 025°40'  
2016-Jun-05 05:33N 37°11' E 025°48'1510.3
2016-Jun-05 04:07N 37°14' E 025°30'610.3
2016-Jun-05 03:33N 37°15' E 025°23'1010.0
2016-Jun-05 02:33N 37°17' E 025°11'1010.3
2016-Jun-05 01:33N 37°19' E 024°58'1010.3
2016-Jun-05 00:33N 37°23' E 024°46'4010.1
2016-Jun-04 20:33N 37°35' E 023°58'1010.4
2016-Jun-04 19:33N 37°39' E 023°46'10 9.7
2016-Jun-04 18:33N 37°47' E 023°38'10 9.5
2016-Jun-04 17:33N 37°51' E 023°27'1010.4
2016-Jun-04 16:33N 37°53' E 023°14'7 7.4
2016-Jun-04 15:33N 37°55' E 023°05'0 0.0
2016-Jun-04 14:33N 37°55' E 023°05'0 0.0
2016-Jun-04 13:33N 37°55' E 023°05'0 0.0
2016-Jun-04 12:33N 37°55' E 023°05'0 0.0
2016-Jun-04 11:32N 37°55' E 023°05'0 0.0
2016-Jun-04 10:33N 37°55' E 023°05'0 0.2
2016-Jun-04 09:33N 37°55' E 023°05'9 8.6
2016-Jun-04 08:33N 37°53' E 023°16'10 9.7
2016-Jun-04 07:33N 37°51' E 023°28'9 9.3
2016-Jun-04 06:33N 37°50' E 023°40'10 9.7
2016-Jun-04 05:33N 37°41' E 023°45'  
Track history (hours):
 
Tides and Currents Weather Stations Pressure Air Temp Water Temp Dewpoint Dewpoint Depression Visibility Wind Speed Wind Dir Waves Ship Positions

Antonios

Last reported at 2016-Jun-14 04:33 UTC. Time now 2016-Jun-29 03:58 UTC.
Position N 37°01' E 025°18'.
Warning: this ship's position is 14 days out of date.

Length 57 m; draft 4 m.

Type: Tanker. MMSI: 239191300.

Date/timePositionNaut miles runAvg speedWind from/ knotsBaromVisibWave heightAir tempDewpointWater temp
2016-Jun-14 04:33N 37°01' E 025°18'6 6.3
2016-Jun-14 03:33N 37°06' E 025°22'0 0.0
2016-Jun-14 02:33N 37°06' E 025°22'0 0.0
2016-Jun-14 01:33N 37°06' E 025°22'7 7.0
2016-Jun-14 00:33N 37°12' E 025°28'9 9.5
2016-Jun-13 23:33N 37°11' E 025°40'  
2016-Jun-05 05:33N 37°11' E 025°48'1510.3
2016-Jun-05 04:07N 37°14' E 025°30'610.3
2016-Jun-05 03:33N 37°15' E 025°23'1010.0
2016-Jun-05 02:33N 37°17' E 025°11'1010.3
2016-Jun-05 01:33N 37°19' E 024°58'1010.3
2016-Jun-05 00:33N 37°23' E 024°46'4010.1
2016-Jun-04 20:33N 37°35' E 023°58'1010.4
2016-Jun-04 19:33N 37°39' E 023°46'10 9.7
2016-Jun-04 18:33N 37°47' E 023°38'10 9.5
2016-Jun-04 17:33N 37°51' E 023°27'1010.4
2016-Jun-04 16:33N 37°53' E 023°14'7 7.4
2016-Jun-04 15:33N 37°55' E 023°05'0 0.0
2016-Jun-04 14:33N 37°55' E 023°05'0 0.0
2016-Jun-04 13:33N 37°55' E 023°05'0 0.0
2016-Jun-04 12:33N 37°55' E 023°05'0 0.0
2016-Jun-04 11:32N 37°55' E 023°05'0 0.0
2016-Jun-04 10:33N 37°55' E 023°05'0 0.2
2016-Jun-04 09:33N 37°55' E 023°05'9 8.6
2016-Jun-04 08:33N 37°53' E 023°16'10 9.7
2016-Jun-04 07:33N 37°51' E 023°28'9 9.3
2016-Jun-04 06:33N 37°50' E 023°40'10 9.7
2016-Jun-04 05:33N 37°41' E 023°45'  

Dump ship's entire track history